EGPO - Stornoway, United Kingdom
Distance from station: E 3km
Updated: Mon, 04-Mar-2024 4:20am GMT
Partly Cloudy
Partly Cloudy
 Wind from SSE
Wind: SSE 14 mph , 22 km/h
Temperature: 7°C
Wind Chill: 4°C
Dew Point: 4°C
Humidity: 81%
Barometer: 1004 hPa
Clouds: Partly Cloudy
Visibility: 6 miles , 10 km
Cloud details: Few Clouds 853 m
Partly Cloudy 1006 m
2024/03/04 04:20 EGPO 040420Z AUTO 16012KT 9999 FEW028/// SCT033/// 07/04 Q1004
EGPL - Benbecula Island, United Kingdom
Distance from station: SW 102km
Updated: Mon, 04-Mar-2024 4:20am GMT
Mostly Cloudy
Mostly Cloudy
 Wind from S
Wind: S 9 mph , 15 km/h
Temperature: 4°C
Wind Chill: 1°C
Dew Point: 3°C
Humidity: 93%
Barometer: 1003 hPa
Clouds: Mostly Cloudy
Visibility: 6 miles , 10 km
Cloud details: Partly Cloudy 213 m
Mostly Cloudy 823 m
2024/03/04 04:20 EGPL 040420Z AUTO 17008KT 9999 SCT007/// BKN027/// 04/03 Q1003
EGQA - Tain Range (saws, United Kingdom
Distance from station: ESE 149km
Updated: Mon, 04-Mar-2024 3:50am GMT
Clear
Clear
 Wind from WSW
Wind: WSW 2 mph , 4 km/h
Temperature: -4°C
Dew Point: -5°C
Humidity: 93%
Barometer: 1006 hPa
Clouds: Clear
Visibility: 6 miles , 10 km
2024/03/04 03:50 EGQA 040350Z AUTO 25002KT 9999 NCD M04/M05 Q1006
 
EGPE - Inverness/Dalcro, United Kingdom
Distance from station: ESE 158km
Updated: Mon, 04-Mar-2024 4:20am GMT
Clear
Clear
 Wind from SW
Wind: SW 3 mph , 6 km/h
Temperature: -3°C
Dew Point: -4°C
Humidity: 93%
Barometer: 1006 hPa
Clouds: Clear
Visibility: 6 miles , 10 km
2024/03/04 04:20 EGPE 040420Z AUTO 23003KT 9999 NCD M03/M04 Q1006
EGQS - Lossiemouth Raf, United Kingdom
Distance from station: ESE 188km
Updated: Mon, 04-Mar-2024 3:50am GMT
Clear
Clear
 Wind from SSE
Wind: SSE 7 mph , 11 km/h
Temperature: 1°C
Wind Chill: -2°C
Dew Point: -1°C
Humidity: 87%
Barometer: 1006 hPa
Summary: Clear
Visibility: greater than 7 miles , 10 km
2024/03/04 03:50 EGQS 040350Z 16006KT CAVOK 01/M01 Q1006 RMK BLU
EGPU - Tiree Island, United Kingdom
Distance from station: S 193km
Updated: Mon, 04-Mar-2024 4:20am GMT
Mostly Cloudy
Mostly Cloudy
 Wind from SSE
Wind: SSE 17 mph , 28 km/h
Temperature: 7°C
Wind Chill: 3°C
Dew Point: 5°C
Humidity: 87%
Barometer: 1003 hPa
Clouds: Mostly Cloudy
Visibility: 6 miles , 10 km
Cloud details: Mostly Cloudy 244 m
2024/03/04 04:20 EGPU 040420Z AUTO 16015KT 9999 BKN008/// 07/05 Q1003
 
EGPC - Wick, United Kingdom
Distance from station: E 195km
Updated: Mon, 04-Mar-2024 4:20am GMT
Clear
Clear
 Wind from S
Wind: S 1 mph , 2 km/h
Temperature: 4°C
Dew Point: 2°C
Humidity: 87%
Barometer: 1006 hPa
Clouds: Clear
Visibility: 6 miles , 10 km
2024/03/04 04:20 EGPC 040420Z AUTO 19001KT 9999 NCD 04/02 Q1006
EGEO - Oban Airport, United Kingdom
Distance from station: SSE 203km
Updated: Sun, 03-Mar-2024 3:50pm GMT
NOT Current
Mostly Cloudy
Mostly Cloudy
 Wind from SE
Wind: SE 10 mph , 17 km/h
Temperature: 7°C
Wind Chill: 4°C
Dew Point: 2°C
Humidity: 71%
Barometer: 1001 hPa
Clouds: Mostly Cloudy
Visibility: 6 miles , 10 km
Cloud details: Mostly Cloudy 884 m
2024/03/03 15:50 EGEO 031550Z 14009KT 9999 BKN029 07/02 Q1001
EGPA - Kirkwall Airport, United Kingdom
Distance from station: ENE 218km
Updated: Mon, 04-Mar-2024 4:20am GMT
Partly Cloudy
Partly Cloudy
 Wind from SSE
Wind: SSE 6 mph , 9 km/h
Temperature: 5°C
Wind Chill: 3°C
Dew Point: 4°C
Humidity: 93%
Barometer: 1006 hPa
Clouds: Partly Cloudy
Visibility: 6 miles , 10 km
Cloud details: Partly Cloudy 335 m
2024/03/04 04:20 EGPA 040420Z AUTO 16005KT 9999 SCT011/// 05/04 Q1006
 
EGPD - Aberdeen/Dyce, United Kingdom
Distance from station: ESE 271km
Updated: Mon, 04-Mar-2024 4:20am GMT
Fog, Partly cloudy
Fog, Partly cloudy
 Wind from varies
Wind: varies 1 mph , 2 km/h
Temperature: 1°C
Dew Point: 0°C
Humidity: 93%
Barometer: 1007 hPa
Summary: Fog
Clouds: Partly Cloudy
Visibility: 0 mile , 0 km
Cloud details: Partly Cloudy 61 m
2024/03/04 04:20 EGPD 040420Z AUTO VRB01KT 0350 FG SCT002 01/00 Q1007
EGPI - Islay/Port Ellen, United Kingdom
Distance from station: S 281km
Updated: Sun, 03-Mar-2024 4:20pm GMT
NOT Current
Few Clouds
Few Clouds
 Wind from S
Wind: S 10 mph , 17 km/h
Temperature: 8°C
Wind Chill: 5°C
Dew Point: 3°C
Humidity: 71%
Barometer: 1000 hPa
Clouds: Few Clouds
Visibility: 6 miles , 10 km
Cloud details: Few Clouds 671 m
2024/03/03 16:20 EGPI 031620Z 18009KT 9999 FEW022 08/03 Q1000
EGPN - Dundee/Riverside, United Kingdom
Distance from station: SE 281km
Updated: Sun, 03-Mar-2024 8:50pm GMT
NOT Current
Few Clouds
Few Clouds
 Wind from calm
Wind: Calm
Temperature: 5°C
Dew Point: 3°C
Humidity: 87%
Barometer: 1005 hPa
Clouds: Few Clouds
Visibility: 6 miles , 10 km
Cloud details: Few Clouds 1372 m
2024/03/03 20:50 EGPN 032050Z 00000KT 9999 FEW045 05/03 Q1005
 
EGPF - Glasgow Airport, United Kingdom
Distance from station: SSE 286km
Updated: Mon, 04-Mar-2024 4:20am GMT
Clear
Clear
 Wind from varies
Wind: varies 2 mph , 4 km/h
Temperature: 1°C
Dew Point: 0°C
Humidity: 93%
Barometer: 1007 hPa
Clouds: Clear
Visibility: 6 miles , 10 km
2024/03/04 04:20 EGPF 040420Z AUTO VRB02KT 9999 NCD 01/00 Q1007
EGQL - Leuchars Raf, United Kingdom
Distance from station: SE 293km
Updated: Mon, 04-Mar-2024 3:50am GMT
Few Clouds
Few Clouds
 Wind from W
Wind: W 5 mph , 7 km/h
Temperature: -1°C
Wind Chill: -4°C
Dew Point: -2°C
Humidity: 93%
Barometer: 1007 hPa
Clouds: Few Clouds
Visibility: 6 miles , 10 km
Cloud details: Few Clouds 610 m
2024/03/04 03:50 EGQL 040350Z 28004KT 9999 FEW020 M01/M02 Q1007 RMK BLU
EGPH - Edinburgh Airpor, United Kingdom
Distance from station: SE 311km
Updated: Mon, 04-Mar-2024 4:20am GMT
Clear
Clear
 Wind from SW
Wind: SW 3 mph , 6 km/h
Temperature: -2°C
Dew Point: -3°C
Humidity: 93%
Barometer: 1007 hPa
Summary: Clear
Visibility: greater than 7 miles , 10 km
2024/03/04 04:20 EGPH 040420Z 22003KT CAVOK M02/M03 Q1007
 
EGEC - Campbeltown, United Kingdom
Distance from station: S 312km
Updated: Sun, 03-Mar-2024 1:20pm GMT
NOT Current
Partly Cloudy
Partly Cloudy
 Wind from S
Wind: S 10 mph , 17 km/h
Temperature: 9°C
Wind Chill: 7°C
Dew Point: 5°C
Humidity: 76%
Barometer: 1000 hPa
Clouds: Partly Cloudy
Visibility: 6 miles , 10 km
Cloud details: Few Clouds 457 m
Partly Cloudy 1036 m
2024/03/03 13:20 EGEC 031320Z 17009KT 130V190 9999 FEW015 SCT034 09/05 Q1000
EGPK - Prestwick(Civ/Na, United Kingdom
Distance from station: SSE 321km
Updated: Mon, 04-Mar-2024 4:20am GMT
Clear
Clear
 Wind from E
Wind: E 9 mph , 15 km/h
Temperature: 1°C
Wind Chill: -3°C
Dew Point: 0°C
Humidity: 93%
Barometer: 1006 hPa
Summary: Clear
Visibility: greater than 7 miles , 10 km
2024/03/04 04:20 EGPK 040420Z 09008KT CAVOK 01/00 Q1006
EGPB - Sumburgh (cape), United Kingdom
Distance from station: NE 343km
Updated: Mon, 04-Mar-2024 4:20am GMT
Light rain, Overcast
Light rain, Overcast
 Wind from SSW
Wind: SSW 2 mph , 4 km/h
Temperature: 6°C
Dew Point: 5°C
Humidity: 93%
Barometer: 1008 hPa
Summary: Light Rain
Clouds: Overcast
Visibility: 6 miles , 10 km
Cloud details: Mostly Cloudy 335 m
Overcast 701 m
2024/03/04 04:20 EGPB 040420Z AUTO 20002KT 9999 -RA BKN011/// OVC023/// 06/05 Q1008

Metar display script from Saratoga-Weather.org